Clintonville, West Virginia
Current Conditions -  °F | °C
As of 5:15 PM on Monday 20 Oct 2014 (Local Time) from KLWB Reporting Station
Light Rain Light Rain  
Wind Chill: 58°   Ceiling: 7000
Heat Index: 58°   Visibility: 10mi
Dew Point: 43°   Wind: 8mph
Humidity: 56%   Direction: 210°SSW
Pressure: 29.97"   Gusts: NA
Location:  37.9616°N, 80.6134°W
Report Text: KLWB 202115Z AUTO 21007KT 10SM -RA SCT050 SCT060 OVC070 15/06 A2997 RMK AO2 T01470059
Loading
Personal Weather Stations






























Interactive Weather Map New forecast layout! Learn more

10-Day Weather Forecast

Advertisements
Track Severe Weather on mobile